Latest Weather Observations for Middle Point

IDD60901

Issued at 5:51 pm CST Tuesday 27 January 2015 (issued every 10 minutes, with the page automatically refreshed every 10 minutes)

About weather observations | Map of Darwin area stations | Latest observations for Darwin area | Other Formats
Station Details ID: 014041 Name: MIDDLE POINT Lat: -12.61 Lon: 131.30 Height: 14.1 m
Data from the previous 72 hours. | See also: Recent months at Middle Point
Date/Time
CST
Tmp

°C
App
Tmp
°C
Dew
Point
°C
Rel
Hum
%
Delta-T

°C
Wind Press
QNH
hPa
Press
MSL
hPa
Rain
since
9 am
mm
Dir
 
Spd
km/h
Gust
km/h
Spd
kts
Gust
kts
27/05:30pm 27.0 30.1 22.2 75 3.2 W 9 13 5 7 1003.5 1003.4 0.4
27/05:00pm 26.8 30.5 22.6 78 2.8 W 7 11 4 6 1003.9 1003.8 0.4
27/04:30pm 26.3 30.4 22.2 78 2.8 WSW 4 9 2 5 1003.8 1003.7 0.4
27/04:00pm 26.0 29.0 22.7 82 2.2 W 11 15 6 8 1004.1 1004.0 0.4
27/03:30pm 25.6 30.3 21.9 80 2.5 CALM 0 4 0 2 1003.8 1003.7 0.4
27/03:00pm 24.9 27.6 22.2 85 1.8 W 11 17 6 9 1005.0 1004.9 0.4
27/02:30pm 24.6 27.9 22.5 88 1.4 WSW 9 13 5 7 1005.2 1005.1 0.4
27/02:00pm 24.4 26.5 21.7 85 1.8 WSW 13 19 7 10 1005.6 1005.5 0.2
27/01:30pm 25.7 26.1 20.9 75 3.2 SW 20 24 11 13 1006.3 1006.2 0.2
27/01:00pm 28.0 29.5 21.3 67 4.5 SSW 15 19 8 10 1006.7 1006.6 0.2
27/12:30pm 28.4 31.1 22.2 69 4.2 SW 11 17 6 9 1006.6 1006.5 0.2
27/12:00pm 29.7 30.8 21.9 63 5.3 WSW 19 24 10 13 1006.3 1006.2 0.2
27/11:30am 29.5 31.2 23.0 68 4.5 WSW 19 24 10 13 1006.9 1006.8 0.2
27/11:00am 28.5 31.3 23.6 75 3.4 SW 15 20 8 11 1007.7 1007.6 0.2
27/10:30am 29.3 31.2 23.7 72 3.9 S 20 28 11 15 1008.1 1008.0 0.2
27/10:00am 27.8 29.5 23.0 75 3.3 SSW 19 33 10 18 1008.4 1008.3 0.0
27/09:30am 28.9 33.7 25.7 83 2.3 S 11 17 6 9 1008.3 1008.2 0.0
27/09:00am 27.5 34.5 25.9 91 1.1 CALM 0 2 0 1 1008.0 1007.9 0.6
27/08:30am 26.2 32.3 25.0 93 0.8 NE 2 4 1 2 1008.1 1008.0 0.6
27/08:00am 25.5 30.2 24.3 93 0.8 N 7 11 4 6 1008.3 1008.2 0.6
27/07:30am 25.3 30.4 24.1 93 0.8 E 4 7 2 4 1007.8 1007.7 0.4
27/07:00am 25.1 29.2 23.9 93 0.8 SSE 9 15 5 8 1007.6 1007.5 0.4
27/06:30am 24.8 29.4 23.8 94 0.7 SE 6 7 3 4 1007.2 1007.1 0.4
27/06:00am 24.2 29.5 23.0 93 0.8 CALM 0 0 0 0 1007.0 1006.9 0.4
27/05:30am 24.5 29.9 23.3 93 0.8 CALM 0 2 0 1 1006.3 1006.2 0.4
27/05:00am 24.0 28.4 22.8 93 0.8 E 4 4 2 2 1006.0 1005.9 0.4
27/04:30am 24.3 28.9 23.1 93 0.8 ESE 4 4 2 2 1005.9 1005.8 0.4
27/04:00am 24.3 29.2 23.1 93 0.8 NNW 2 4 1 2 1005.7 1005.6 0.4
27/03:30am 24.0 29.2 22.8 93 0.8 CALM 0 0 0 0 1005.8 1005.7 0.4
27/03:00am 24.0 29.2 22.8 93 0.8 CALM 0 0 0 0 1005.7 1005.6 0.4
27/02:30am 23.9 28.1 22.5 92 0.9 NNW 4 4 2 2 1005.6 1005.5 0.4
27/02:00am 24.3 28.8 22.9 92 0.9 NW 4 4 2 2 1006.1 1006.0 0.4
27/01:30am 24.6 29.6 23.2 92 1.0 WNW 2 2 1 1 1006.4 1006.3 0.4
27/01:00am 24.7 29.4 23.3 92 1.0 NW 4 4 2 2 1007.2 1007.1 0.4
27/12:30am 24.9 29.2 23.3 91 1.1 WNW 6 7 3 4 1007.7 1007.6 0.4
27/12:00am 25.1 28.9 23.5 91 1.1 SW 9 11 5 6 1007.9 1007.8 0.4
 
Date/Time
CST
Tmp

°C
App
Tmp
°C
Dew
Point
°C
Rel
Hum
%
Delta-T

°C
Wind Press
QNH
hPa
Press
MSL
hPa
Rain
since
9 am
mm
Dir
 
Spd
km/h
Gust
km/h
Spd
kts
Gust
kts
26/11:30pm 25.2 29.7 23.6 91 1.1 WNW 6 7 3 4 1007.9 1007.8 0.4
26/11:00pm 25.3 29.5 23.5 90 1.2 NW 7 11 4 6 1007.7 1007.6 0.4
26/10:30pm 25.5 30.0 23.7 90 1.2 NNW 6 7 3 4 1007.7 1007.6 0.4
26/10:00pm 25.6 29.6 23.8 90 1.2 NW 9 13 5 7 1007.5 1007.4 0.4
26/09:30pm 25.6 29.2 23.8 90 1.2 NNW 11 15 6 8 1007.4 1007.3 0.4
26/09:00pm 25.4 29.4 23.8 91 1.1 NW 9 11 5 6 1007.2 1007.1 0.4
26/08:30pm 25.3 29.6 23.7 91 1.1 NNW 7 9 4 5 1007.2 1007.1 0.4
26/08:00pm 25.4 29.7 23.6 90 1.2 NNW 7 11 4 6 1006.8 1006.7 0.4
26/07:30pm 25.4 29.7 23.6 90 1.2 N 7 11 4 6 1006.2 1006.1 0.4
26/07:00pm 25.7 29.4 23.9 90 1.2 NNW 11 13 6 7 1006.2 1006.1 0.4
26/06:30pm 26.1 30.8 24.0 88 1.4 NW 6 7 3 4 1006.3 1006.2 0.4
26/06:00pm 26.3 31.4 24.0 87 1.6 NNE 4 7 2 4 1006.2 1006.1 0.4
26/05:30pm 26.5 31.7 23.6 84 2.0 NNE 2 6 1 3 1006.5 1006.4 0.4
26/05:00pm 26.4 31.3 23.7 85 1.9 SSW 4 6 2 3 1006.5 1006.4 0.4
26/04:30pm 26.3 30.4 24.0 87 1.6 SSW 9 15 5 8 1006.0 1005.9 0.4
26/04:00pm 26.1 31.2 24.0 88 1.4 E 4 6 2 3 1005.9 1005.8 0.4
26/03:30pm 26.0 30.9 23.7 87 1.6 NW 4 11 2 6 1006.3 1006.2 0.4
26/03:00pm 25.8 28.8 23.3 86 1.7 SW 13 17 7 9 1007.0 1006.9 0.4
26/02:30pm 26.4 29.0 23.3 83 2.1 SSW 15 19 8 10 1006.9 1006.8 0.0
26/02:00pm 27.2 30.8 23.7 81 2.4 NW 11 20 6 11 1007.3 1007.2 0.0
26/01:30pm 30.8 33.7 22.4 61 5.7 SSE 11 20 6 11 1006.7 1006.6 0.0
26/01:00pm 33.1 36.5 24.0 59 6.4 W 13 19 7 10 1006.9 1006.8 0.0
26/12:30pm 32.0 35.8 24.1 63 5.5 SW 11 17 6 9 1007.4 1007.3 0.0
26/12:00pm 32.1 36.0 23.6 60 5.9 W 9 17 5 9 1007.7 1007.6 0.0
26/11:30am 32.6 37.1 25.2 65 5.2 WSW 11 19 6 10 1008.3 1008.2 0.0
26/11:00am 31.6 36.5 25.2 69 4.5 WSW 9 17 5 9 1009.1 1009.0 0.0
26/10:30am 30.7 35.5 25.1 72 4.0 W 9 15 5 8 1009.2 1009.1 0.0
26/10:00am 30.1 34.8 25.6 77 3.2 W 11 17 6 9 1009.1 1009.0 0.0
26/09:30am 29.1 35.0 25.9 83 2.3 WNW 6 9 3 5 1009.3 1009.2 0.0
26/09:00am 28.0 34.6 25.2 85 2.0 CALM 0 0 0 0 1009.4 1009.3 19.6
26/08:30am 26.7 33.1 24.9 90 1.3 CALM 0 0 0 0 1009.2 1009.1 19.6
26/08:00am 26.2 32.3 25.0 93 0.8 SE 2 2 1 1 1009.0 1008.9 19.6
26/07:30am 25.1 30.2 24.1 94 0.7 ESE 4 6 2 3 1008.9 1008.8 19.6
26/07:00am 23.8 29.0 22.8 94 0.7 CALM 0 0 0 0 1008.6 1008.5 19.6
26/06:30am 23.6 28.5 22.4 93 0.8 CALM 0 2 0 1 1008.4 1008.3 19.6
26/06:00am 23.5 28.0 22.3 93 0.8 WNW 2 4 1 2 1008.1 1008.0 19.6
26/05:30am 23.6 27.8 22.4 93 0.8 NW 4 6 2 3 1007.6 1007.5 19.6
26/05:00am 23.6 28.5 22.4 93 0.8 CALM 0 0 0 0 1007.6 1007.5 19.6
26/04:30am 23.7 28.7 22.5 93 0.8 CALM 0 0 0 0 1007.6 1007.5 19.6
26/04:00am 23.8 28.1 22.6 93 0.8 S 4 4 2 2 1007.3 1007.2 19.6
26/03:30am 24.2 29.5 23.0 93 0.8 CALM 0 0 0 0 1007.3 1007.2 19.6
26/03:00am 24.8 30.0 23.6 93 0.8 S 2 4 1 2 1007.6 1007.5 19.6
26/02:30am 24.2 29.5 23.0 93 0.8 CALM 0 0 0 0 1007.8 1007.7 19.6
26/02:00am 24.6 29.7 23.4 93 0.8 SSE 2 2 1 1 1008.1 1008.0 19.6
26/01:30am 24.8 29.3 23.6 93 0.8 SSE 6 6 3 3 1008.4 1008.3 19.6
26/01:00am 24.9 29.4 23.7 93 0.8 SSE 6 6 3 3 1008.8 1008.7 19.6
26/12:30am 24.6 29.3 23.4 93 0.8 ENE 4 4 2 2 1009.3 1009.2 19.6
26/12:00am 24.9 29.4 23.7 93 0.8 ESE 6 6 3 3 1009.7 1009.6 19.6
 
Date/Time
CST
Tmp

°C
App
Tmp
°C
Dew
Point
°C
Rel
Hum
%
Delta-T

°C
Wind Press
QNH
hPa
Press
MSL
hPa
Rain
since
9 am
mm
Dir
 
Spd
km/h
Gust
km/h
Spd
kts
Gust
kts
25/11:30pm 24.5 29.1 23.1 92 0.9 E 4 4 2 2 1009.6 1009.5 19.6
25/11:00pm 24.5 28.7 23.1 92 0.9 NE 6 6 3 3 1009.7 1009.6 19.6
25/10:30pm 24.6 30.0 23.2 92 0.9 CALM 0 0 0 0 1009.5 1009.4 19.6
25/10:00pm 24.6 29.2 23.2 92 0.9 N 4 7 2 4 1009.0 1008.9 19.6
25/09:30pm 24.9 30.0 23.3 91 1.1 W 2 2 1 1 1009.0 1008.9 19.4
25/09:00pm 25.0 29.4 23.4 91 1.1 SSW 6 7 3 4 1008.3 1008.2 19.4
25/08:30pm 24.9 29.2 23.3 91 1.1 SSW 6 6 3 3 1008.3 1008.2 19.4
25/08:00pm 24.9 29.0 23.3 91 1.1 W 7 9 4 5 1008.2 1008.1 19.4
25/07:30pm 24.9 29.0 23.0 89 1.3 NW 6 9 3 5 1007.8 1007.7 19.4
25/07:00pm 25.1 29.8 23.3 90 1.2 WNW 4 6 2 3 1007.4 1007.3 19.4
25/06:30pm 25.2 30.7 23.4 90 1.2 CALM 0 2 0 1 1006.9 1006.8 19.4
25/06:00pm 25.2 29.7 23.6 91 1.1 W 6 7 3 4 1007.2 1007.1 19.4
25/05:30pm 25.1 29.4 23.3 90 1.2 WNW 6 9 3 5 1007.5 1007.4 19.0
25/05:00pm 25.1 29.2 23.3 90 1.2 WNW 7 15 4 8 1007.4 1007.3 19.0
25/04:30pm 24.8 28.9 23.0 90 1.2 WNW 6 9 3 5 1006.6 1006.5 18.8
25/04:00pm 24.1 26.2 22.4 90 1.1 WNW 15 26 8 14 1006.9 1006.8 18.6
25/03:30pm 24.6 23.8 21.7 84 1.9 W 28 37 15 20 1007.3 1007.2 13.6
25/03:27pm 25.6 25.8 22.1 81 2.3 W 24 33 13 18 1007.2 1007.1 10.8
25/03:00pm 30.6 34.4 24.7 71 4.1 W 13 20 7 11 1007.4 1007.3 10.0
25/02:30pm 30.0 34.8 25.1 75 3.5 WSW 9 15 5 8 1007.2 1007.1 10.0
25/02:00pm 28.3 30.4 23.7 76 3.2 W 19 26 10 14 1007.7 1007.6 10.0
25/01:30pm 27.5 28.8 23.3 78 2.9 NNW 22 30 12 16 1008.0 1007.9 9.0
25/01:00pm 31.8 35.3 23.6 62 5.7 WNW 11 17 6 9 1008.3 1008.2 0.0
25/12:30pm 32.5 36.1 23.7 59 6.1 WNW 11 19 6 10 1008.5 1008.4 0.0
25/12:00pm 31.9 34.7 23.7 62 5.7 WNW 15 22 8 12 1008.7 1008.6 0.0
25/11:30am 30.6 32.9 23.5 66 4.9 WNW 17 22 9 12 1009.4 1009.3 0.0
25/11:00am 30.2 32.6 22.9 65 5.0 NW 15 22 8 12 1010.0 1009.9 0.0
25/10:30am 31.4 36.8 26.0 73 3.9 W 9 15 5 8 1010.0 1009.9 0.0
25/10:00am 29.6 35.7 25.6 79 2.8 WNW 4 7 2 4 1010.2 1010.1 0.0
25/09:30am 28.4 33.8 25.2 83 2.2 N 6 7 3 4 1010.2 1010.1 0.0
25/09:00am 27.7 33.1 25.1 86 1.8 N 6 9 3 5 1010.2 1010.1 0.0
25/08:30am 27.2 32.8 25.4 90 1.3 NE 6 7 3 4 1009.9 1009.8 0.0
25/08:00am 26.3 31.9 24.9 92 1.0 ENE 4 7 2 4 1009.5 1009.4 0.0
25/07:30am 25.4 31.2 24.0 92 1.0 CALM 0 2 0 1 1009.0 1008.9 0.0
25/07:00am 25.2 30.6 23.8 92 1.0 NE 2 2 1 1 1008.5 1008.4 0.0
25/06:30am 25.1 30.4 23.7 92 1.0 N 2 4 1 2 1007.9 1007.8 0.0
25/06:00am 25.1 29.6 23.7 92 1.0 NE 6 6 3 3 1007.7 1007.6 0.0
25/05:30am 25.1 30.8 23.7 92 1.0 CALM 0 0 0 0 1007.9 1007.8 0.0
25/05:00am 25.3 31.1 23.9 92 1.0 CALM 0 0 0 0 1008.1 1008.0 0.0
25/04:30am 25.3 30.0 23.9 92 1.0 ENE 6 7 3 4 1008.1 1008.0 0.0
25/04:00am 24.7 29.0 23.3 92 1.0 N 6 6 3 3 1007.5 1007.4 0.0
25/03:30am 24.9 29.7 23.5 92 1.0 N 4 4 2 2 1007.4 1007.3 0.0
25/03:00am 24.7 30.0 23.1 91 1.1 CALM 0 2 0 1 1007.6 1007.5 0.0
25/02:30am 24.6 29.5 23.0 91 1.1 NW 2 4 1 2 1007.7 1007.6 0.0
25/02:00am 24.8 29.0 23.2 91 1.1 N 6 7 3 4 1007.8 1007.7 0.0
25/01:30am 24.8 28.9 23.2 91 1.1 E 7 7 4 4 1008.4 1008.3 0.0
25/01:00am 24.8 29.0 23.2 91 1.1 E 6 6 3 3 1008.3 1008.2 0.0
25/12:30am 25.1 29.9 23.5 91 1.1 NNW 4 6 2 3 1008.6 1008.5 0.0
25/12:00am 24.6 28.7 23.2 92 1.0 NW 7 11 4 6 1008.5 1008.4 0.0
 
Date/Time
CST
Tmp

°C
App
Tmp
°C
Dew
Point
°C
Rel
Hum
%
Delta-T

°C
Wind Press
QNH
hPa
Press
MSL
hPa
Rain
since
9 am
mm
Dir
 
Spd
km/h
Gust
km/h
Spd
kts
Gust
kts
24/11:30pm 24.4 28.2 22.8 91 1.1 N 7 7 4 4 1009.0 1008.9 0.0
24/11:00pm 24.3 29.0 22.6 90 1.1 E 2 7 1 4 1009.7 1009.6 0.0
24/10:30pm 24.6 29.0 22.8 90 1.2 E 4 6 2 3 1009.5 1009.4 0.0
24/10:00pm 24.8 30.1 23.0 90 1.2 CALM 0 0 0 0 1009.4 1009.3 0.0
24/09:30pm 24.7 28.6 22.6 88 1.4 WNW 6 6 3 3 1008.5 1008.4 0.0
24/09:00pm 25.4 30.0 23.1 87 1.6 NNW 4 7 2 4 1008.4 1008.3 0.0
24/08:30pm 25.5 29.6 23.2 87 1.6 N 7 9 4 5 1007.8 1007.7 0.0
24/08:00pm 25.6 30.1 22.9 85 1.8 N 4 4 2 2 1007.9 1007.8 0.0
24/07:30pm 26.0 31.0 22.5 81 2.4 CALM 0 2 0 1 1007.5 1007.4 0.0
24/07:00pm 26.9 30.2 21.9 74 3.3 SW 7 9 4 5 1007.4 1007.3 0.0
24/06:30pm 27.9 32.1 22.4 72 3.7 NW 4 6 2 3 1006.4 1006.3 0.0
24/06:00pm 28.1 31.3 22.3 70 3.9 WNW 9 15 5 8 1005.6 1005.5 0.0

Latest Capital City Observations: Canberra | Sydney | Melbourne | Brisbane | Adelaide | Perth | Hobart | Darwin

Other Formats:

Comma delimited format used in spreadsheet applications
http://www.bom.gov.au/fwo/IDD60901/IDD60901.95121.axf

JavaScript Object Notation format (JSON) in row-major order
http://www.bom.gov.au/fwo/IDD60901/IDD60901.95121.json